Time;durP1;ratioP1;P1;durP2;ratioP2;P2;SDS_P1;SDS_P2;PMS_P1;PMS_P2;Temp;Humidity;BMP_temperature;BMP_pressure;BME280_temperature;BME280_humidity;BME280_pressure;Samples;Min_cycle;Max_cycle;Signal;HPM_P1;HPM_P2
2022/07/31 00:01:50;;;;;;;;;;;25.50;54.40;;;;;;5139667;27;19914;-87
2022/07/31 00:04:16;;;;;;;;;;;25.40;54.40;;;;;;5121496;27;19903;-88
2022/07/31 00:06:43;;;;;;;;;;;25.40;54.40;;;;;;5120716;27;19971;-87
2022/07/31 00:09:09;;;;;;;;;;;25.40;54.50;;;;;;5122243;27;19907;-87
2022/07/31 00:11:34;;;;;;;;;;;25.40;54.50;;;;;;5121637;27;19910;-88
2022/07/31 00:14:00;;;;;;;;;;;25.40;54.50;;;;;;5121583;27;19903;-88
2022/07/31 00:16:26;;;;;;;;;;;25.40;55.00;;;;;;5121359;27;19907;-88
2022/07/31 00:18:51;;;;;;;;;;;25.40;54.70;;;;;;5139204;27;19915;-88
2022/07/31 00:21:17;;;;;;;;;;;25.40;54.80;;;;;;5119107;27;19914;-88
2022/07/31 00:23:43;;;;;;;;;;;25.40;54.80;;;;;;5120954;27;19934;-87
2022/07/31 00:26:09;;;;;;;;;;;25.40;54.90;;;;;;5119513;27;19912;-87
2022/07/31 00:28:35;;;;;;;;;;;25.40;54.90;;;;;;5137885;27;20185;-87
2022/07/31 00:31:01;;;;;;;;;;;25.40;55.00;;;;;;5119708;27;19904;-88
2022/07/31 00:33:26;;;;;;;;;;;25.40;55.10;;;;;;5120194;27;20230;-88
2022/07/31 00:35:52;;;;;;;;;;;25.30;55.10;;;;;;5120603;27;19986;-87
2022/07/31 00:38:18;;;;;;;;;;;25.30;55.10;;;;;;5139004;27;19904;-88
2022/07/31 00:40:45;;;;;;;;;;;25.30;55.30;;;;;;5121931;27;20019;-87
2022/07/31 00:43:12;;;;;;;;;;;25.30;55.30;;;;;;5120939;27;20296;-88
2022/07/31 00:45:37;;;;;;;;;;;25.30;55.30;;;;;;5120760;27;19903;-87
2022/07/31 00:48:03;;;;;;;;;;;25.20;55.20;;;;;;5120290;27;19953;-87
2022/07/31 00:50:29;;;;;;;;;;;25.30;55.40;;;;;;5122152;27;20273;-88
2022/07/31 00:52:54;;;;;;;;;;;25.20;55.40;;;;;;5120643;27;19903;-88
2022/07/31 00:55:21;;;;;;;;;;;25.20;55.40;;;;;;5138776;27;20418;-88
2022/07/31 00:57:47;;;;;;;;;;;25.20;55.40;;;;;;5121154;27;19911;-88
2022/07/31 01:00:13;;;;;;;;;;;25.20;55.60;;;;;;5121319;27;20184;-88
2022/07/31 01:02:38;;;;;;;;;;;25.20;55.70;;;;;;5119026;27;19908;-88
2022/07/31 01:05:04;;;;;;;;;;;25.20;55.70;;;;;;5120006;27;19978;-88
2022/07/31 01:07:30;;;;;;;;;;;25.20;55.90;;;;;;5120802;27;20288;-89
2022/07/31 01:09:56;;;;;;;;;;;25.20;55.90;;;;;;5119436;27;19967;-89
2022/07/31 01:12:26;;;;;;;;;;;25.20;55.90;;;;;;5119030;27;20143;-89
2022/07/31 01:14:53;;;;;;;;;;;25.10;56.00;;;;;;5119663;27;20257;-89
2022/07/31 01:17:20;;;;;;;;;;;25.10;55.90;;;;;;5120796;27;19903;-89
2022/07/31 01:19:47;;;;;;;;;;;25.10;56.10;;;;;;5120120;27;19931;-89
2022/07/31 01:22:15;;;;;;;;;;;25.10;56.30;;;;;;5119995;27;19907;-89
2022/07/31 01:25:04;;;;;;;;;;;25.10;56.40;;;;;;5120996;27;19930;-90
2022/07/31 01:27:36;;;;;;;;;;;25.10;56.40;;;;;;5120172;27;19907;-90
2022/07/31 01:30:02;;;;;;;;;;;25.00;56.50;;;;;;5120343;27;19994;-90
2022/07/31 01:32:33;;;;;;;;;;;25.00;56.60;;;;;;5120663;27;19903;-90
2022/07/31 01:35:05;;;;;;;;;;;25.00;56.70;;;;;;5120453;27;19903;-90
2022/07/31 01:37:36;;;;;;;;;;;25.00;56.80;;;;;;5138670;27;19934;-90
2022/07/31 01:40:01;;;;;;;;;;;24.90;57.60;;;;;;5120219;27;20288;-90
2022/07/31 01:42:27;;;;;;;;;;;24.90;57.30;;;;;;5137773;27;19903;-90
2022/07/31 01:44:55;;;;;;;;;;;24.90;57.30;;;;;;5120510;27;19914;-90
2022/07/31 01:47:22;;;;;;;;;;;24.90;57.40;;;;;;5119608;27;19915;-90
2022/07/31 01:49:51;;;;;;;;;;;24.90;57.40;;;;;;5120029;27;19914;-90
2022/07/31 01:52:19;;;;;;;;;;;24.90;57.30;;;;;;5138347;27;19904;-90
2022/07/31 01:54:45;;;;;;;;;;;24.90;57.40;;;;;;5137634;27;19996;-90
2022/07/31 01:57:11;;;;;;;;;;;24.90;57.40;;;;;;5120424;27;19938;-88
2022/07/31 01:59:38;;;;;;;;;;;24.90;57.60;;;;;;5120202;27;19903;-88
2022/07/31 02:02:07;;;;;;;;;;;24.90;57.60;;;;;;5120144;27;20148;-88
2022/07/31 02:04:33;;;;;;;;;;;24.90;58.30;;;;;;5119497;27;19914;-88
2022/07/31 02:07:02;;;;;;;;;;;24.80;58.10;;;;;;5119966;27;19908;-88
2022/07/31 02:09:29;;;;;;;;;;;24.80;58.20;;;;;;5119476;27;19995;-88
2022/07/31 02:11:55;;;;;;;;;;;24.80;58.20;;;;;;5119713;27;20192;-88
2022/07/31 02:14:21;;;;;;;;;;;24.80;58.00;;;;;;5119731;27;19903;-88
2022/07/31 02:16:48;;;;;;;;;;;24.80;58.20;;;;;;5119498;27;19907;-88
2022/07/31 02:19:15;;;;;;;;;;;24.80;58.20;;;;;;5119498;27;20281;-88
2022/07/31 02:21:41;;;;;;;;;;;24.80;58.40;;;;;;5118900;27;19929;-88
2022/07/31 02:24:07;;;;;;;;;;;24.80;58.40;;;;;;5138030;27;19910;-88
2022/07/31 02:26:35;;;;;;;;;;;24.80;58.90;;;;;;5119396;27;20145;-88
2022/07/31 02:29:01;;;;;;;;;;;24.70;58.50;;;;;;5120365;27;19904;-89
2022/07/31 02:31:29;;;;;;;;;;;24.70;58.50;;;;;;5119705;27;19908;-90
2022/07/31 02:33:54;;;;;;;;;;;24.70;58.70;;;;;;5119409;27;19903;-90
2022/07/31 02:36:21;;;;;;;;;;;24.70;58.70;;;;;;5119426;28;19903;-89
2022/07/31 02:38:49;;;;;;;;;;;24.70;58.70;;;;;;5119080;27;19964;-89
2022/07/31 02:41:15;;;;;;;;;;;24.70;59.10;;;;;;5118955;28;19903;-89
2022/07/31 02:43:42;;;;;;;;;;;24.70;58.50;;;;;;5119439;27;19958;-90
2022/07/31 02:46:08;;;;;;;;;;;24.70;58.80;;;;;;5119392;28;19914;-90
2022/07/31 02:48:35;;;;;;;;;;;24.70;58.80;;;;;;5119085;28;20348;-90
2022/07/31 02:51:01;;;;;;;;;;;24.70;58.70;;;;;;5119603;27;19953;-89
2022/07/31 02:53:27;;;;;;;;;;;24.70;58.80;;;;;;5119109;28;19969;-90
2022/07/31 02:55:53;;;;;;;;;;;24.70;58.80;;;;;;5119715;28;20055;-90
2022/07/31 02:58:19;;;;;;;;;;;24.70;58.90;;;;;;5137043;28;19911;-90
2022/07/31 03:00:44;;;;;;;;;;;24.70;59.20;;;;;;5119767;28;19903;-89
2022/07/31 03:03:10;;;;;;;;;;;24.70;58.80;;;;;;5119722;28;20277;-89
2022/07/31 03:05:36;;;;;;;;;;;24.60;58.70;;;;;;5119153;28;19907;-89
2022/07/31 03:08:01;;;;;;;;;;;24.60;58.80;;;;;;5118356;27;19907;-89
2022/07/31 03:10:27;;;;;;;;;;;24.60;58.80;;;;;;5123007;27;20077;-89
2022/07/31 03:12:53;;;;;;;;;;;24.60;58.80;;;;;;5122862;27;19934;-89
2022/07/31 03:15:22;;;;;;;;;;;24.60;59.20;;;;;;5122956;27;19911;-89
2022/07/31 03:17:48;;;;;;;;;;;24.60;58.90;;;;;;5122223;27;20372;-89
2022/07/31 03:20:14;;;;;;;;;;;24.60;58.90;;;;;;5123439;27;19917;-89
2022/07/31 03:22:40;;;;;;;;;;;24.60;58.90;;;;;;5123222;27;19998;-89
2022/07/31 03:25:06;;;;;;;;;;;24.60;59.10;;;;;;5141172;27;19908;-89
2022/07/31 03:27:32;;;;;;;;;;;24.60;59.10;;;;;;5122556;27;19918;-89
2022/07/31 03:29:58;;;;;;;;;;;24.50;59.10;;;;;;5122427;27;19903;-89
2022/07/31 03:32:24;;;;;;;;;;;24.50;59.20;;;;;;5140583;27;19900;-89
2022/07/31 03:34:49;;;;;;;;;;;24.50;59.20;;;;;;5140715;27;19968;-89
2022/07/31 03:37:15;;;;;;;;;;;24.50;59.30;;;;;;5124100;27;19975;-89
2022/07/31 03:39:41;;;;;;;;;;;24.50;59.30;;;;;;5123015;27;19903;-89
2022/07/31 03:42:08;;;;;;;;;;;24.50;59.40;;;;;;5122783;27;20085;-89
2022/07/31 03:44:34;;;;;;;;;;;24.50;59.30;;;;;;5140616;27;20252;-89
2022/07/31 03:46:59;;;;;;;;;;;24.50;59.30;;;;;;5123052;27;20278;-89
2022/07/31 03:49:25;;;;;;;;;;;24.50;59.40;;;;;;5140224;27;19903;-89
2022/07/31 03:51:51;;;;;;;;;;;24.50;59.30;;;;;;5122318;27;19903;-89
2022/07/31 03:54:16;;;;;;;;;;;24.50;59.30;;;;;;5139674;27;19911;-89
2022/07/31 03:56:45;;;;;;;;;;;24.50;59.30;;;;;;5122382;27;19903;-89
2022/07/31 03:59:10;;;;;;;;;;;24.50;59.30;;;;;;5121691;27;20158;-89
2022/07/31 04:01:36;;;;;;;;;;;24.50;59.30;;;;;;5122330;27;19914;-89
2022/07/31 04:04:02;;;;;;;;;;;24.50;59.20;;;;;;5121711;27;19935;-89
2022/07/31 04:06:28;;;;;;;;;;;24.50;59.10;;;;;;5121911;27;20295;-89
2022/07/31 04:08:53;;;;;;;;;;;24.50;59.00;;;;;;5121508;27;20333;-89
2022/07/31 04:11:19;;;;;;;;;;;24.40;57.70;;;;;;5121760;27;19914;-90
2022/07/31 04:13:44;;;;;;;;;;;24.30;58.80;;;;;;5121642;27;20001;-90
2022/07/31 04:16:10;;;;;;;;;;;24.40;58.90;;;;;;5140312;27;20181;-89
2022/07/31 04:18:35;;;;;;;;;;;24.40;58.90;;;;;;5121967;27;20341;-89
2022/07/31 04:21:01;;;;;;;;;;;24.40;58.90;;;;;;5138245;27;19907;-90
2022/07/31 04:23:27;;;;;;;;;;;24.40;58.90;;;;;;5139386;27;20007;-89
2022/07/31 04:25:53;;;;;;;;;;;24.30;58.50;;;;;;5121903;27;19969;-89
2022/07/31 04:28:18;;;;;;;;;;;24.30;57.90;;;;;;5122065;27;19961;-89
2022/07/31 04:30:44;;;;;;;;;;;24.20;58.00;;;;;;5121517;27;20249;-89
2022/07/31 04:33:09;;;;;;;;;;;24.30;58.60;;;;;;5121514;27;19934;-89
2022/07/31 04:35:35;;;;;;;;;;;24.20;58.20;;;;;;5139238;27;19912;-89
2022/07/31 04:38:01;;;;;;;;;;;24.20;58.30;;;;;;5121965;27;20060;-89
2022/07/31 04:40:26;;;;;;;;;;;24.20;58.60;;;;;;5121053;27;20280;-90
2022/07/31 04:42:55;;;;;;;;;;;24.10;57.40;;;;;;5121802;27;20072;-88
2022/07/31 04:45:21;;;;;;;;;;;24.00;58.50;;;;;;5121431;27;19997;-89
2022/07/31 04:47:46;;;;;;;;;;;24.10;58.60;;;;;;5139281;27;20079;-89
2022/07/31 04:50:12;;;;;;;;;;;24.20;58.60;;;;;;5121890;27;20158;-89
2022/07/31 04:52:37;;;;;;;;;;;24.20;58.20;;;;;;5121122;27;20447;-89
2022/07/31 04:55:03;;;;;;;;;;;24.10;58.00;;;;;;5139036;27;19975;-89
2022/07/31 04:57:29;;;;;;;;;;;24.10;57.80;;;;;;5121405;27;19903;-89
2022/07/31 04:59:54;;;;;;;;;;;24.10;58.10;;;;;;5121223;27;19915;-90
2022/07/31 05:02:20;;;;;;;;;;;23.90;58.40;;;;;;5120942;27;19907;-90
2022/07/31 05:04:46;;;;;;;;;;;23.50;58.90;;;;;;5121386;27;20181;-90
2022/07/31 05:07:11;;;;;;;;;;;23.40;59.70;;;;;;5120720;27;19911;-90
2022/07/31 05:09:37;;;;;;;;;;;23.20;61.20;;;;;;5121154;27;19918;-90
2022/07/31 05:12:03;;;;;;;;;;;23.20;61.00;;;;;;5120404;27;20192;-90
2022/07/31 05:14:28;;;;;;;;;;;23.30;61.60;;;;;;5120680;27;19914;-88
2022/07/31 05:16:54;;;;;;;;;;;23.30;61.10;;;;;;5138216;27;20298;-88
2022/07/31 05:19:20;;;;;;;;;;;23.30;61.60;;;;;;5120587;27;19911;-87
2022/07/31 05:21:45;;;;;;;;;;;23.20;61.90;;;;;;5120167;27;19937;-88
2022/07/31 05:24:11;;;;;;;;;;;23.20;63.30;;;;;;5121058;27;19907;-88
2022/07/31 05:26:37;;;;;;;;;;;23.30;62.50;;;;;;5120412;27;19903;-88
2022/07/31 05:29:03;;;;;;;;;;;23.50;61.50;;;;;;5120569;27;19903;-88
2022/07/31 05:31:29;;;;;;;;;;;23.60;60.40;;;;;;5119787;27;19915;-88
2022/07/31 05:33:57;;;;;;;;;;;23.70;59.70;;;;;;5118912;27;20279;-88
2022/07/31 05:36:23;;;;;;;;;;;23.80;59.30;;;;;;5118045;27;20109;-88
2022/07/31 05:38:49;;;;;;;;;;;23.90;59.00;;;;;;5119232;27;19963;-88
2022/07/31 05:41:15;;;;;;;;;;;24.00;58.80;;;;;;5118209;27;19911;-88
2022/07/31 05:43:40;;;;;;;;;;;24.00;58.60;;;;;;5136316;27;20273;-88
2022/07/31 05:46:07;;;;;;;;;;;24.10;58.50;;;;;;5119113;27;19938;-88
2022/07/31 05:48:32;;;;;;;;;;;24.10;58.30;;;;;;5119342;27;20018;-88
2022/07/31 05:50:59;;;;;;;;;;;24.20;58.30;;;;;;5120057;27;19994;-89
2022/07/31 05:53:25;;;;;;;;;;;24.20;58.40;;;;;;5119844;27;19972;-89
2022/07/31 05:55:51;;;;;;;;;;;24.20;58.40;;;;;;5120131;27;19914;-89
2022/07/31 05:58:17;;;;;;;;;;;24.30;58.00;;;;;;5120150;27;19904;-89
2022/07/31 06:00:44;;;;;;;;;;;24.30;57.90;;;;;;5120374;27;19907;-89
2022/07/31 06:03:13;;;;;;;;;;;24.40;57.80;;;;;;5119659;27;19969;-89
2022/07/31 06:05:39;;;;;;;;;;;24.40;57.80;;;;;;5120472;27;19910;-89
2022/07/31 06:08:05;;;;;;;;;;;24.40;57.50;;;;;;5119472;27;19907;-89
2022/07/31 06:10:31;;;;;;;;;;;24.40;57.50;;;;;;5119575;27;20265;-89
2022/07/31 06:12:57;;;;;;;;;;;24.50;57.40;;;;;;5119579;27;19914;-89
2022/07/31 06:15:22;;;;;;;;;;;24.50;57.40;;;;;;5119339;27;19907;-89
2022/07/31 06:17:48;;;;;;;;;;;24.50;57.70;;;;;;5137462;27;19903;-88
2022/07/31 06:20:14;;;;;;;;;;;24.50;57.30;;;;;;5119607;27;19903;-89
2022/07/31 06:22:40;;;;;;;;;;;24.60;57.50;;;;;;5120320;27;19903;-88
2022/07/31 06:25:07;;;;;;;;;;;24.60;57.00;;;;;;5137462;27;19904;-88
2022/07/31 06:27:33;;;;;;;;;;;24.70;56.90;;;;;;5118935;27;20180;-88
2022/07/31 06:29:59;;;;;;;;;;;24.70;56.90;;;;;;5118713;27;20272;-87
2022/07/31 06:32:25;;;;;;;;;;;24.80;56.50;;;;;;5118975;27;19971;-87
2022/07/31 06:34:50;;;;;;;;;;;24.90;57.00;;;;;;5119064;27;19916;-87
2022/07/31 06:37:16;;;;;;;;;;;25.00;56.40;;;;;;5118823;27;19939;-87
2022/07/31 06:39:42;;;;;;;;;;;25.10;56.30;;;;;;5119102;27;19904;-88
2022/07/31 06:42:07;;;;;;;;;;;25.20;56.30;;;;;;5119151;27;19911;-87
2022/07/31 06:44:33;;;;;;;;;;;25.40;56.30;;;;;;5117689;27;20011;-87
2022/07/31 06:46:59;;;;;;;;;;;25.70;55.80;;;;;;5118543;28;19946;-87
2022/07/31 06:49:26;;;;;;;;;;;25.90;55.20;;;;;;5117457;27;20487;-88
2022/07/31 06:51:51;;;;;;;;;;;26.10;54.20;;;;;;5136622;27;20361;-87
2022/07/31 06:54:17;;;;;;;;;;;26.20;53.80;;;;;;5136645;27;19907;-87
2022/07/31 06:56:43;;;;;;;;;;;26.30;53.50;;;;;;5119180;28;19907;-90
2022/07/31 06:59:09;;;;;;;;;;;26.40;53.30;;;;;;5136449;28;19907;-90
2022/07/31 07:01:35;;;;;;;;;;;26.50;53.00;;;;;;5136309;28;20225;-90
2022/07/31 07:04:00;;;;;;;;;;;26.50;54.00;;;;;;5118857;28;19904;-89
2022/07/31 07:06:26;;;;;;;;;;;26.50;52.90;;;;;;5118458;28;19908;-90
2022/07/31 07:08:51;;;;;;;;;;;26.40;52.90;;;;;;5117567;28;19903;-89
2022/07/31 07:11:18;;;;;;;;;;;26.20;53.40;;;;;;5135052;28;20281;-89
2022/07/31 07:13:44;;;;;;;;;;;26.10;53.70;;;;;;5117299;28;19911;-89
2022/07/31 07:16:09;;;;;;;;;;;26.00;54.30;;;;;;5116995;28;20206;-89
2022/07/31 07:18:35;;;;;;;;;;;26.00;53.70;;;;;;5135080;28;19930;-89
2022/07/31 07:21:01;;;;;;;;;;;26.00;53.70;;;;;;5117303;28;19904;-89
2022/07/31 07:23:27;;;;;;;;;;;26.00;53.70;;;;;;5117092;28;19934;-89
2022/07/31 07:25:52;;;;;;;;;;;26.10;53.60;;;;;;5116456;28;19989;-90
2022/07/31 07:28:18;;;;;;;;;;;26.10;53.40;;;;;;5117965;28;20157;-89
2022/07/31 07:30:44;;;;;;;;;;;26.10;53.60;;;;;;5117683;28;19914;-87
2022/07/31 07:33:09;;;;;;;;;;;26.10;53.80;;;;;;5117730;28;19903;-87
2022/07/31 07:35:35;;;;;;;;;;;26.10;53.50;;;;;;5117410;28;19907;-87
2022/07/31 07:38:01;;;;;;;;;;;26.10;53.70;;;;;;5117941;28;19913;-88
2022/07/31 07:40:27;;;;;;;;;;;26.00;53.70;;;;;;5117022;28;19907;-88
2022/07/31 07:42:53;;;;;;;;;;;26.00;54.50;;;;;;5118026;28;19968;-88
2022/07/31 07:45:18;;;;;;;;;;;25.90;54.70;;;;;;5117592;28;20196;-87
2022/07/31 07:47:44;;;;;;;;;;;25.90;54.50;;;;;;5116155;28;19908;-87
2022/07/31 07:50:11;;;;;;;;;;;25.90;54.50;;;;;;5116892;28;19903;-88
2022/07/31 07:52:37;;;;;;;;;;;25.90;54.70;;;;;;5116089;28;19903;-88
2022/07/31 07:55:03;;;;;;;;;;;26.00;54.60;;;;;;5118990;27;19910;-88
2022/07/31 07:57:29;;;;;;;;;;;26.10;54.80;;;;;;5138837;27;20345;-88
2022/07/31 07:59:58;;;;;;;;;;;26.10;55.10;;;;;;5118926;27;19915;-87
2022/07/31 08:02:23;;;;;;;;;;;26.10;54.80;;;;;;5121333;27;19903;-90
2022/07/31 08:04:49;;;;;;;;;;;26.10;54.60;;;;;;5121174;27;20005;-89
2022/07/31 08:07:15;;;;;;;;;;;26.20;55.10;;;;;;5121104;27;20014;-89
2022/07/31 08:09:40;;;;;;;;;;;26.20;55.00;;;;;;5120189;27;19910;-89
2022/07/31 08:12:06;;;;;;;;;;;26.20;54.90;;;;;;5137916;27;20207;-89
2022/07/31 08:14:32;;;;;;;;;;;26.10;55.90;;;;;;5119896;27;19990;-90
2022/07/31 08:16:57;;;;;;;;;;;26.20;55.10;;;;;;5120630;27;20231;-90
2022/07/31 08:19:23;;;;;;;;;;;26.30;54.70;;;;;;5119691;27;19911;-89
2022/07/31 08:21:48;;;;;;;;;;;26.30;54.80;;;;;;5120064;27;19903;-90
2022/07/31 08:24:17;;;;;;;;;;;26.40;55.50;;;;;;5119860;27;19960;-90
2022/07/31 08:29:27;;;;;;;;;;;26.50;54.50;;;;;;5138372;27;19918;-89
2022/07/31 08:31:52;;;;;;;;;;;26.50;54.40;;;;;;5120240;27;19903;-90
2022/07/31 08:34:18;;;;;;;;;;;26.50;55.20;;;;;;5119549;27;20269;-90
2022/07/31 08:36:43;;;;;;;;;;;26.40;54.40;;;;;;5120259;27;19903;-89
2022/07/31 08:39:09;;;;;;;;;;;26.50;54.50;;;;;;5136678;27;20169;-89
2022/07/31 08:41:39;;;;;;;;;;;26.50;53.80;;;;;;5118800;27;19910;-89
2022/07/31 08:44:05;;;;;;;;;;;26.50;53.80;;;;;;5118877;27;19911;-89
2022/07/31 08:46:36;;;;;;;;;;;26.50;54.10;;;;;;5136070;27;19907;-89
2022/07/31 08:49:02;;;;;;;;;;;26.50;54.20;;;;;;5120084;27;20265;-89
2022/07/31 08:51:30;;;;;;;;;;;26.40;54.40;;;;;;5118581;27;20173;-89
2022/07/31 08:53:56;;;;;;;;;;;26.40;54.40;;;;;;5119641;27;19904;-89
2022/07/31 08:56:23;;;;;;;;;;;26.40;54.40;;;;;;5119552;27;19915;-89
2022/07/31 08:58:48;;;;;;;;;;;26.40;54.50;;;;;;5118719;27;19933;-89
2022/07/31 09:01:14;;;;;;;;;;;26.30;56.30;;;;;;5118650;27;20269;-89
2022/07/31 09:03:40;;;;;;;;;;;26.30;55.40;;;;;;5119415;27;19903;-89
2022/07/31 09:06:06;;;;;;;;;;;26.30;55.20;;;;;;5136588;27;19903;-89
2022/07/31 09:08:32;;;;;;;;;;;26.20;55.40;;;;;;5119975;27;19917;-87
2022/07/31 09:11:01;;;;;;;;;;;26.20;56.00;;;;;;5119373;27;20116;-87
2022/07/31 09:13:27;;;;;;;;;;;26.30;55.20;;;;;;5118727;27;20230;-87
2022/07/31 09:15:56;;;;;;;;;;;26.30;55.10;;;;;;5118668;27;20288;-87
2022/07/31 09:18:23;;;;;;;;;;;26.40;55.20;;;;;;5118480;27;19923;-87
2022/07/31 09:20:56;;;;;;;;;;;26.50;55.10;;;;;;5117526;27;19903;-87
2022/07/31 09:23:22;;;;;;;;;;;26.70;55.10;;;;;;5118439;27;19918;-87
2022/07/31 09:25:59;;;;;;;;;;;26.70;54.70;;;;;;5118437;27;19994;-87
2022/07/31 09:28:35;;;;;;;;;;;26.80;54.50;;;;;;5135908;27;19907;-87
2022/07/31 09:31:01;;;;;;;;;;;27.00;54.20;;;;;;5118244;27;20382;-87
2022/07/31 09:33:28;;;;;;;;;;;27.00;54.00;;;;;;5118262;27;19916;-87
2022/07/31 09:35:54;;;;;;;;;;;27.00;54.00;;;;;;5117615;27;19915;-87
2022/07/31 09:38:20;;;;;;;;;;;26.90;54.10;;;;;;5118557;27;19903;-88
2022/07/31 09:40:46;;;;;;;;;;;26.80;54.70;;;;;;5119619;27;20068;-87
2022/07/31 09:43:16;;;;;;;;;;;26.80;54.50;;;;;;5137015;27;19907;-90
2022/07/31 09:45:47;;;;;;;;;;;26.80;55.70;;;;;;5118248;27;20162;-90
2022/07/31 09:48:13;;;;;;;;;;;26.70;55.00;;;;;;5117286;27;19908;-89
2022/07/31 09:50:55;;;;;;;;;;;26.70;54.70;;;;;;5118339;27;19933;-90
2022/07/31 09:53:21;;;;;;;;;;;26.70;54.70;;;;;;5116291;27;19903;-90
2022/07/31 09:55:54;;;;;;;;;;;26.70;54.90;;;;;;5117013;27;19990;-90
2022/07/31 09:58:21;;;;;;;;;;;26.80;54.90;;;;;;5117016;27;19942;-90
2022/07/31 10:00:48;;;;;;;;;;;26.80;55.10;;;;;;5117496;27;20262;-89
2022/07/31 10:03:17;;;;;;;;;;;26.80;54.90;;;;;;5116574;27;19903;-90
2022/07/31 10:05:44;;;;;;;;;;;26.90;54.90;;;;;;5117542;27;19903;-89
2022/07/31 10:08:10;;;;;;;;;;;26.90;54.90;;;;;;5116717;27;19907;-89
2022/07/31 10:15:40;;;;;;;;;;;27.00;54.50;;;;;;5115403;28;19919;-10
2022/07/31 10:18:07;;;;;;;;;;;27.00;54.50;;;;;;5117137;28;19911;-10
2022/07/31 10:20:33;;;;;;;;;;;27.00;54.50;;;;;;5118491;28;19914;-10
2022/07/31 10:23:04;;;;;;;;;;;27.00;54.60;;;;;;5118052;28;19994;-10
2022/07/31 10:25:30;;;;;;;;;;;27.00;54.70;;;;;;5117915;28;19903;-10
2022/07/31 10:27:56;;;;;;;;;;;27.00;54.80;;;;;;5117935;28;19994;-10
2022/07/31 10:30:24;;;;;;;;;;;27.00;54.70;;;;;;5118043;28;19904;-10
2022/07/31 10:32:50;;;;;;;;;;;27.00;54.80;;;;;;5117670;28;19935;-12
2022/07/31 10:35:17;;;;;;;;;;;27.00;54.80;;;;;;5118263;28;19950;-12
2022/07/31 10:37:46;;;;;;;;;;;27.00;54.80;;;;;;5117607;28;19995;-12
2022/07/31 10:40:24;;;;;;;;;;;27.00;54.90;;;;;;5100075;28;20398;-12
2022/07/31 10:43:08;;;;;;;;;;;27.10;54.80;;;;;;5117257;28;19904;-12
2022/07/31 10:45:44;;;;;;;;;;;27.20;54.70;;;;;;5117816;28;19904;-12
2022/07/31 10:48:10;;;;;;;;;;;27.20;55.00;;;;;;5117691;28;19908;-12
2022/07/31 10:50:35;;;;;;;;;;;27.30;54.70;;;;;;5117660;28;20047;-12
2022/07/31 10:53:11;;;;;;;;;;;27.30;54.70;;;;;;5099700;28;19903;-12
2022/07/31 10:55:37;;;;;;;;;;;27.30;54.70;;;;;;5117668;28;19904;-12
2022/07/31 10:58:13;;;;;;;;;;;27.30;54.80;;;;;;5118047;28;19904;-12
2022/07/31 11:00:39;;;;;;;;;;;27.30;54.60;;;;;;5117249;28;20003;-12
2022/07/31 11:03:13;;;;;;;;;;;27.30;55.00;;;;;;5117067;28;19919;-12
2022/07/31 11:05:38;;;;;;;;;;;27.20;54.90;;;;;;5117486;28;19994;-12
2022/07/31 11:08:06;;;;;;;;;;;27.20;54.90;;;;;;5116813;28;20060;-12
2022/07/31 11:10:47;;;;;;;;;;;27.20;55.00;;;;;;5099571;28;19915;-12
2022/07/31 11:13:14;;;;;;;;;;;27.30;55.10;;;;;;5100032;28;19910;-12
2022/07/31 11:15:39;;;;;;;;;;;27.30;55.30;;;;;;5117408;28;19918;-12
2022/07/31 11:18:11;;;;;;;;;;;27.40;54.70;;;;;;5117825;28;19904;-12
2022/07/31 11:20:45;;;;;;;;;;;27.60;54.70;;;;;;5099395;28;19970;-12
2022/07/31 11:23:14;;;;;;;;;;;27.70;54.30;;;;;;5117671;28;19908;-12
2022/07/31 11:25:40;;;;;;;;;;;27.70;54.10;;;;;;5099396;28;19904;-12
2022/07/31 11:28:12;;;;;;;;;;;27.80;54.00;;;;;;5117024;28;19907;-12
2022/07/31 11:31:01;;;;;;;;;;;27.80;54.10;;;;;;5102334;28;19915;-12
2022/07/31 11:33:28;;;;;;;;;;;27.70;54.10;;;;;;5102566;28;19908;-12
2022/07/31 11:35:53;;;;;;;;;;;27.70;54.30;;;;;;5102952;28;19904;-12
2022/07/31 11:38:25;;;;;;;;;;;27.60;54.20;;;;;;5120223;28;19910;-12
2022/07/31 11:40:51;;;;;;;;;;;27.60;54.50;;;;;;5102016;28;20018;-12
2022/07/31 11:43:16;;;;;;;;;;;27.60;54.50;;;;;;5121279;28;20006;-12
2022/07/31 11:45:50;;;;;;;;;;;27.60;54.70;;;;;;5102937;28;19915;-12
2022/07/31 11:48:16;;;;;;;;;;;27.60;54.60;;;;;;5120999;28;19907;-12
2022/07/31 11:50:43;;;;;;;;;;;27.60;54.60;;;;;;5121212;28;19911;-12
2022/07/31 11:53:10;;;;;;;;;;;27.60;54.90;;;;;;5120723;28;19915;-12
2022/07/31 11:55:55;;;;;;;;;;;27.60;54.80;;;;;;5121623;28;19904;-12
2022/07/31 11:58:21;;;;;;;;;;;27.60;54.90;;;;;;5120975;28;19918;-12
2022/07/31 12:00:54;;;;;;;;;;;27.50;55.00;;;;;;5102386;28;20022;-12
2022/07/31 12:03:21;;;;;;;;;;;27.60;55.10;;;;;;5121091;28;19900;-12
2022/07/31 12:05:48;;;;;;;;;;;27.60;55.00;;;;;;5121105;28;20380;-12
2022/07/31 12:08:15;;;;;;;;;;;27.60;54.90;;;;;;5120717;28;19947;-12
2022/07/31 12:10:40;;;;;;;;;;;27.60;55.10;;;;;;5120567;28;20335;-12
2022/07/31 12:13:11;;;;;;;;;;;27.50;55.40;;;;;;5102672;28;20273;-12
2022/07/31 12:15:36;;;;;;;;;;;27.50;55.50;;;;;;5102899;28;20269;-12
2022/07/31 12:18:04;;;;;;;;;;;27.40;56.00;;;;;;5120842;28;20009;-12
2022/07/31 12:20:30;;;;;;;;;;;27.40;55.90;;;;;;5102606;28;19929;-12
2022/07/31 12:22:59;;;;;;;;;;;27.30;55.80;;;;;;5102194;28;19904;-12
2022/07/31 12:25:25;;;;;;;;;;;27.30;55.90;;;;;;5120295;28;19964;-12
2022/07/31 12:27:54;;;;;;;;;;;27.30;56.20;;;;;;5102773;28;20030;-12
2022/07/31 12:30:24;;;;;;;;;;;27.30;56.40;;;;;;5120143;28;19904;-12
2022/07/31 12:32:50;;;;;;;;;;;27.30;56.00;;;;;;5101950;28;20277;-12
2022/07/31 12:35:15;;;;;;;;;;;27.40;56.00;;;;;;5119917;28;19904;-12
2022/07/31 12:37:46;;;;;;;;;;;27.50;55.90;;;;;;5120720;28;20270;-12
2022/07/31 12:40:22;;;;;;;;;;;27.60;56.20;;;;;;5102228;28;19914;-12
2022/07/31 12:42:47;;;;;;;;;;;27.60;56.30;;;;;;5119479;28;19904;-12
2022/07/31 12:45:15;;;;;;;;;;;27.70;55.90;;;;;;5120012;28;19915;-12
2022/07/31 12:47:40;;;;;;;;;;;27.80;55.80;;;;;;5119654;28;19919;-12
2022/07/31 12:50:06;;;;;;;;;;;27.80;55.60;;;;;;5102249;28;19908;-12
2022/07/31 12:52:33;;;;;;;;;;;27.80;55.70;;;;;;5119582;28;19904;-12
2022/07/31 12:55:05;;;;;;;;;;;27.80;55.60;;;;;;5119440;28;19993;-12
2022/07/31 12:57:31;;;;;;;;;;;27.80;56.40;;;;;;5102438;28;19915;-12
2022/07/31 12:59:56;;;;;;;;;;;27.90;55.90;;;;;;5119652;28;19904;-12
2022/07/31 13:02:22;;;;;;;;;;;27.90;55.60;;;;;;5101909;28;19904;-12
2022/07/31 13:04:57;;;;;;;;;;;27.90;55.70;;;;;;5119564;28;19903;-12
2022/07/31 13:07:22;;;;;;;;;;;28.00;55.70;;;;;;5101091;28;19908;-12
2022/07/31 13:09:48;;;;;;;;;;;28.00;55.50;;;;;;5119546;28;19910;-12
2022/07/31 13:12:13;;;;;;;;;;;28.00;55.40;;;;;;5101760;28;19907;-12
2022/07/31 13:14:39;;;;;;;;;;;28.00;55.50;;;;;;5118689;28;19911;-12
2022/07/31 13:17:04;;;;;;;;;;;28.00;55.30;;;;;;5101861;28;20356;-12
2022/07/31 13:19:30;;;;;;;;;;;28.00;55.40;;;;;;5119236;28;20196;-12
2022/07/31 13:21:56;;;;;;;;;;;28.00;55.30;;;;;;5119417;28;19920;-12
2022/07/31 13:24:22;;;;;;;;;;;28.00;55.20;;;;;;5101440;28;19982;-12
2022/07/31 13:26:48;;;;;;;;;;;28.00;55.30;;;;;;5119000;28;19939;-12
2022/07/31 13:29:14;;;;;;;;;;;28.00;55.40;;;;;;5118772;28;19914;-12
2022/07/31 13:31:41;;;;;;;;;;;28.00;55.50;;;;;;5118512;28;20390;-12
2022/07/31 13:34:06;;;;;;;;;;;28.00;55.60;;;;;;5118574;28;19903;-12
2022/07/31 13:36:32;;;;;;;;;;;27.90;55.70;;;;;;5118768;28;20204;-12
2022/07/31 13:38:58;;;;;;;;;;;27.90;56.00;;;;;;5100772;28;19927;-12
2022/07/31 13:41:33;;;;;;;;;;;27.90;55.70;;;;;;5118481;28;19972;-12
2022/07/31 13:43:58;;;;;;;;;;;27.90;55.90;;;;;;5118455;28;19911;-12
2022/07/31 13:46:25;;;;;;;;;;;27.80;56.00;;;;;;5118020;28;19904;-12
2022/07/31 13:48:52;;;;;;;;;;;27.90;56.30;;;;;;5118690;28;19915;-12
2022/07/31 13:51:17;;;;;;;;;;;27.80;56.00;;;;;;5118446;28;20001;-12
2022/07/31 13:53:43;;;;;;;;;;;27.80;56.40;;;;;;5117897;28;19908;-12
2022/07/31 13:56:09;;;;;;;;;;;27.80;56.40;;;;;;5118176;28;19903;-12
2022/07/31 13:58:35;;;;;;;;;;;27.80;56.30;;;;;;5117296;28;19997;-12
2022/07/31 14:01:01;;;;;;;;;;;27.80;56.40;;;;;;5100038;28;19998;-12
2022/07/31 14:03:26;;;;;;;;;;;27.80;56.70;;;;;;5117931;28;19911;-12
2022/07/31 14:05:53;;;;;;;;;;;27.80;56.40;;;;;;5118458;28;19904;-12
2022/07/31 14:08:18;;;;;;;;;;;27.90;56.70;;;;;;5117658;28;19908;-12
2022/07/31 14:10:45;;;;;;;;;;;27.90;56.20;;;;;;5118166;28;20008;-12
2022/07/31 14:13:10;;;;;;;;;;;27.90;56.10;;;;;;5117652;28;19907;-12
2022/07/31 14:15:36;;;;;;;;;;;28.00;56.30;;;;;;5117782;28;20057;-12
2022/07/31 14:18:02;;;;;;;;;;;28.00;56.40;;;;;;5117210;28;19911;-12
2022/07/31 14:20:29;;;;;;;;;;;28.00;55.90;;;;;;5117475;28;19908;-12
2022/07/31 14:22:54;;;;;;;;;;;28.00;56.30;;;;;;5117422;28;19911;-12